createdAt,value
2017-08-27T00:01:37.374Z,99.90
2017-08-27T00:04:06.808Z,99.90
2017-08-27T00:06:36.219Z,99.90
2017-08-27T00:09:05.275Z,99.90
2017-08-27T00:11:34.712Z,99.90
2017-08-27T00:14:04.113Z,99.90
2017-08-27T00:16:33.327Z,99.90
2017-08-27T00:19:02.732Z,99.90
2017-08-27T00:21:32.159Z,99.90
2017-08-27T00:24:01.592Z,99.90
2017-08-27T00:26:30.992Z,99.90
2017-08-27T00:29:01.976Z,99.90
2017-08-27T00:31:31.393Z,99.90
2017-08-27T00:34:00.489Z,99.90
2017-08-27T00:36:29.539Z,99.90
2017-08-27T00:38:58.961Z,99.90
2017-08-27T00:41:28.386Z,99.90
2017-08-27T00:43:57.824Z,99.90
2017-08-27T00:46:27.258Z,99.90
2017-08-27T00:48:56.641Z,99.90
2017-08-27T00:51:25.716Z,99.90
2017-08-27T00:53:55.145Z,99.90
2017-08-27T00:56:24.542Z,99.90
2017-08-27T00:58:53.981Z,99.90
2017-08-27T01:01:23.390Z,99.90
2017-08-27T01:03:52.833Z,99.90
2017-08-27T01:06:21.896Z,99.90
2017-08-27T01:08:51.313Z,99.90
2017-08-27T01:11:20.176Z,99.90
2017-08-27T01:13:49.592Z,99.90
2017-08-27T01:16:19.021Z,99.90
2017-08-27T01:18:48.238Z,99.90
2017-08-27T01:21:17.628Z,99.90
2017-08-27T01:23:46.730Z,99.90
2017-08-27T01:26:15.974Z,99.90
2017-08-27T01:28:45.396Z,99.90
2017-08-27T01:31:14.801Z,99.90
2017-08-27T01:33:44.225Z,99.90
2017-08-27T01:36:13.643Z,99.90
2017-08-27T01:38:43.182Z,99.90
2017-08-27T01:41:12.583Z,99.90
2017-08-27T01:43:41.659Z,99.90
2017-08-27T01:46:11.089Z,99.90
2017-08-27T01:48:40.481Z,99.90
2017-08-27T01:51:09.912Z,99.90
2017-08-27T01:53:39.341Z,99.90
2017-08-27T01:56:08.779Z,99.90
2017-08-27T01:58:38.190Z,99.90
2017-08-27T02:01:07.609Z,99.90
2017-08-27T02:03:36.821Z,99.90
2017-08-27T02:06:06.038Z,99.90
2017-08-27T02:08:35.432Z,99.90
2017-08-27T02:11:04.856Z,99.90
2017-08-27T02:13:34.257Z,99.90
2017-08-27T02:16:03.677Z,99.90
2017-08-27T02:18:33.093Z,99.90
2017-08-27T02:21:02.517Z,99.90
2017-08-27T02:23:31.931Z,99.90
2017-08-27T02:26:01.349Z,99.90
2017-08-27T02:28:30.558Z,99.90
2017-08-27T02:30:59.960Z,99.90
2017-08-27T02:33:29.372Z,99.90
2017-08-27T02:35:58.801Z,99.90
2017-08-27T02:38:28.232Z,99.90
2017-08-27T02:40:57.617Z,99.90
2017-08-27T02:43:27.052Z,99.90
2017-08-27T02:45:56.450Z,99.90
2017-08-27T02:48:25.852Z,99.90
2017-08-27T02:50:55.258Z,99.90
2017-08-27T02:53:24.509Z,99.90
2017-08-27T02:55:53.915Z,99.90
2017-08-27T02:58:23.323Z,99.90
2017-08-27T03:00:52.738Z,99.90
2017-08-27T03:03:22.170Z,99.90
2017-08-27T03:05:51.571Z,99.90
2017-08-27T03:08:21.020Z,99.90
2017-08-27T03:10:50.414Z,99.90
2017-08-27T03:13:19.814Z,99.90
2017-08-27T03:15:49.232Z,99.90
2017-08-27T03:18:18.620Z,99.90
2017-08-27T03:20:48.039Z,99.90
2017-08-27T03:23:20.501Z,99.90
2017-08-27T03:25:49.935Z,99.90
2017-08-27T03:28:19.138Z,99.90
2017-08-27T03:30:48.562Z,99.90
2017-08-27T03:33:17.979Z,99.90
2017-08-27T03:35:47.424Z,99.90
2017-08-27T03:38:16.814Z,99.90
2017-08-27T03:40:46.233Z,99.90
2017-08-27T03:43:15.643Z,99.90
2017-08-27T03:45:45.052Z,99.90
2017-08-27T03:48:14.461Z,99.90
2017-08-27T03:50:43.882Z,99.90
2017-08-27T03:53:13.286Z,99.90
2017-08-27T03:55:42.492Z,99.90
2017-08-27T03:58:11.716Z,99.90
2017-08-27T04:00:41.157Z,99.90
2017-08-27T04:03:10.561Z,99.90
2017-08-27T04:05:39.980Z,99.90
2017-08-27T04:08:10.145Z,99.90
2017-08-27T04:10:39.567Z,99.90
2017-08-27T04:13:08.978Z,99.90
2017-08-27T04:15:38.382Z,99.90
2017-08-27T04:18:07.784Z,99.90
2017-08-27T04:20:37.205Z,99.90
2017-08-27T04:23:06.620Z,99.90
2017-08-27T04:25:35.836Z,99.90
2017-08-27T04:28:05.254Z,99.90
2017-08-27T04:30:34.493Z,99.90
2017-08-27T04:33:03.931Z,99.90
2017-08-27T04:35:33.336Z,99.90
2017-08-27T04:38:02.745Z,99.90
2017-08-27T04:40:32.153Z,99.90
2017-08-27T04:43:01.549Z,99.90
2017-08-27T04:45:30.973Z,99.90
2017-08-27T04:48:00.382Z,99.90
2017-08-27T04:50:29.806Z,99.90
2017-08-27T04:52:59.224Z,99.90
2017-08-27T04:55:28.658Z,99.90
2017-08-27T04:57:58.061Z,99.90
2017-08-27T05:00:27.476Z,99.90
2017-08-27T05:02:56.909Z,99.90
2017-08-27T05:05:26.335Z,99.90
2017-08-27T05:07:55.749Z,99.90
2017-08-27T05:10:25.165Z,99.90
2017-08-27T05:12:54.593Z,99.90
2017-08-27T05:15:23.989Z,99.90
2017-08-27T05:17:53.419Z,99.90
2017-08-27T05:20:22.818Z,99.90
2017-08-27T05:22:52.259Z,99.90
2017-08-27T05:25:21.685Z,99.90
2017-08-27T05:27:51.130Z,99.90
2017-08-27T05:30:20.547Z,99.90
2017-08-27T05:32:49.959Z,99.90
2017-08-27T05:35:19.383Z,99.90
2017-08-27T05:37:48.796Z,99.90
2017-08-27T05:40:18.218Z,99.90
2017-08-27T05:42:47.624Z,99.90
2017-08-27T05:45:17.034Z,99.90
2017-08-27T05:47:46.454Z,99.90
2017-08-27T05:50:15.875Z,99.90
2017-08-27T05:52:45.325Z,99.90
2017-08-27T05:55:14.729Z,99.90
2017-08-27T05:57:44.147Z,99.90
2017-08-27T06:00:13.574Z,99.90
2017-08-27T06:02:43.042Z,99.90
2017-08-27T06:05:12.462Z,99.90
2017-08-27T06:07:41.887Z,99.90
2017-08-27T06:10:11.123Z,99.90
2017-08-27T06:12:40.546Z,99.90
2017-08-27T06:15:09.962Z,99.90
2017-08-27T06:17:39.412Z,99.90
2017-08-27T06:20:08.828Z,99.90
2017-08-27T06:22:38.340Z,99.90
2017-08-27T06:25:07.737Z,99.90
2017-08-27T06:27:36.981Z,99.90
2017-08-27T06:30:06.538Z,99.90
2017-08-27T06:32:35.933Z,99.90
2017-08-27T06:35:05.347Z,99.90
2017-08-27T06:37:34.741Z,99.90
2017-08-27T06:40:04.162Z,99.90
2017-08-27T06:42:33.592Z,99.90
2017-08-27T06:45:03.025Z,99.90
2017-08-27T06:47:32.434Z,99.90
2017-08-27T06:50:01.866Z,99.90
2017-08-27T06:52:31.280Z,99.90
2017-08-27T06:55:00.762Z,99.90
2017-08-27T06:57:30.170Z,99.90
2017-08-27T06:59:59.585Z,99.90
2017-08-27T07:02:28.989Z,99.90
2017-08-27T07:04:58.411Z,99.90
2017-08-27T07:07:27.804Z,99.90
2017-08-27T07:09:57.251Z,99.90
2017-08-27T07:12:26.650Z,99.90
2017-08-27T07:14:56.066Z,99.90
2017-08-27T07:17:25.473Z,99.90
2017-08-27T07:19:54.911Z,99.90
2017-08-27T07:22:24.313Z,99.90
2017-08-27T07:24:53.726Z,99.90
2017-08-27T07:27:22.931Z,99.90
2017-08-27T07:29:52.403Z,99.90
2017-08-27T07:32:21.792Z,99.90
2017-08-27T07:34:51.229Z,99.90
2017-08-27T07:37:20.620Z,99.90
2017-08-27T07:39:50.061Z,99.90
2017-08-27T07:42:19.474Z,99.90
2017-08-27T07:44:48.888Z,99.90
2017-08-27T07:47:18.303Z,99.60
2017-08-27T07:49:48.507Z,98.70
2017-08-27T07:52:17.898Z,98.70
2017-08-27T07:54:47.323Z,98.00
2017-08-27T07:57:16.747Z,97.30
2017-08-27T07:59:46.141Z,96.20
2017-08-27T08:02:15.551Z,96.20
2017-08-27T08:04:44.949Z,97.10
2017-08-27T08:07:14.358Z,96.80
2017-08-27T08:09:43.757Z,96.30
2017-08-27T08:12:13.185Z,95.60
2017-08-27T08:14:42.588Z,95.30
2017-08-27T08:17:12.392Z,95.60
2017-08-27T08:19:41.821Z,94.80
2017-08-27T08:22:11.235Z,93.80
2017-08-27T08:24:40.639Z,93.30
2017-08-27T08:27:10.084Z,92.70
2017-08-27T08:29:39.494Z,92.50
2017-08-27T08:32:08.915Z,92.60
2017-08-27T08:34:38.298Z,93.00
2017-08-27T08:37:07.726Z,92.10
2017-08-27T08:39:37.339Z,91.50
2017-08-27T08:42:06.798Z,91.00
2017-08-27T08:44:36.197Z,91.40
2017-08-27T08:47:05.593Z,92.00
2017-08-27T08:49:35.047Z,91.50
2017-08-27T08:52:04.425Z,90.60
2017-08-27T08:54:33.845Z,90.70
2017-08-27T08:57:03.235Z,90.40
2017-08-27T08:59:32.677Z,90.30
2017-08-27T09:02:02.070Z,90.30
2017-08-27T09:04:31.518Z,90.00
2017-08-27T09:07:00.909Z,90.00
2017-08-27T09:09:30.303Z,89.20
2017-08-27T09:11:59.700Z,87.90
2017-08-27T09:14:29.120Z,86.10
2017-08-27T09:16:58.327Z,85.00
2017-08-27T09:19:27.539Z,84.10
2017-08-27T09:21:56.931Z,83.40
2017-08-27T09:24:26.354Z,81.40
2017-08-27T09:26:55.751Z,80.20
2017-08-27T09:29:25.169Z,81.60
2017-08-27T09:31:54.570Z,82.30
2017-08-27T09:34:23.960Z,82.60
2017-08-27T09:36:53.369Z,80.70
2017-08-27T09:39:22.425Z,80.10
2017-08-27T09:41:51.860Z,79.30
2017-08-27T09:44:21.517Z,79.40
2017-08-27T09:46:50.914Z,77.60
2017-08-27T09:49:20.352Z,76.40
2017-08-27T09:51:49.739Z,74.80
2017-08-27T09:54:19.179Z,74.70
2017-08-27T09:56:48.573Z,73.50
2017-08-27T09:59:17.997Z,71.40
2017-08-27T10:01:47.414Z,70.30
2017-08-27T10:04:16.796Z,71.40
2017-08-27T10:06:46.228Z,70.70
2017-08-27T10:09:15.625Z,71.10
2017-08-27T10:11:49.888Z,69.50
2017-08-27T10:14:19.273Z,71.50
2017-08-27T10:16:48.712Z,71.70
2017-08-27T10:19:18.098Z,73.20
2017-08-27T10:21:47.501Z,74.80
2017-08-27T10:24:16.937Z,73.50
2017-08-27T10:26:46.340Z,72.30
2017-08-27T10:29:15.746Z,69.60
2017-08-27T10:31:45.157Z,65.90
2017-08-27T10:34:14.369Z,65.10
2017-08-27T10:36:43.788Z,64.50
2017-08-27T10:39:13.162Z,66.00
2017-08-27T10:41:42.581Z,66.80
2017-08-27T10:44:11.991Z,68.30
2017-08-27T10:46:41.210Z,68.00
2017-08-27T10:49:10.609Z,64.60
2017-08-27T10:51:40.017Z,63.70
2017-08-27T10:54:09.405Z,61.10
2017-08-27T10:56:38.834Z,61.20
2017-08-27T10:59:08.223Z,58.90
2017-08-27T11:01:37.649Z,56.40
2017-08-27T11:04:07.806Z,57.00
2017-08-27T11:06:37.205Z,57.00
2017-08-27T11:09:06.611Z,57.10
2017-08-27T11:11:36.005Z,58.20
2017-08-27T11:14:05.399Z,60.30
2017-08-27T11:16:34.806Z,61.50
2017-08-27T11:19:04.224Z,61.80
2017-08-27T11:21:33.639Z,59.60
2017-08-27T11:24:03.027Z,57.50
2017-08-27T11:26:32.425Z,56.10
2017-08-27T11:29:01.837Z,55.00
2017-08-27T11:31:31.234Z,54.40
2017-08-27T11:34:00.643Z,54.10
2017-08-27T11:36:30.034Z,53.80
2017-08-27T11:38:59.434Z,53.70
2017-08-27T11:41:28.818Z,55.60
2017-08-27T11:43:58.231Z,57.10
2017-08-27T11:46:27.619Z,56.80
2017-08-27T11:48:57.037Z,56.00
2017-08-27T11:51:26.445Z,54.60
2017-08-27T11:53:55.866Z,53.30
2017-08-27T11:56:25.264Z,53.70
2017-08-27T11:58:54.691Z,56.00
2017-08-27T12:01:24.090Z,53.90
2017-08-27T12:03:53.524Z,50.80
2017-08-27T12:06:22.919Z,48.90
2017-08-27T12:08:52.327Z,45.60
2017-08-27T12:11:21.754Z,46.00
2017-08-27T12:13:51.988Z,44.70
2017-08-27T12:16:21.369Z,44.70
2017-08-27T12:18:50.782Z,46.20
2017-08-27T12:21:20.238Z,47.10
2017-08-27T12:23:49.627Z,48.60
2017-08-27T12:26:19.088Z,48.40
2017-08-27T12:28:48.493Z,48.70
2017-08-27T12:31:17.926Z,48.20
2017-08-27T12:33:47.324Z,47.90
2017-08-27T12:36:16.729Z,45.10
2017-08-27T12:38:46.109Z,41.10
2017-08-27T12:41:15.505Z,40.60
2017-08-27T12:43:44.905Z,41.20
2017-08-27T12:46:14.339Z,40.40
2017-08-27T12:48:43.718Z,42.70
2017-08-27T12:51:13.126Z,46.00
2017-08-27T12:53:42.516Z,45.70
2017-08-27T12:56:11.921Z,48.60
2017-08-27T12:58:41.351Z,49.50
2017-08-27T13:01:10.771Z,47.80
2017-08-27T13:03:40.175Z,45.30
2017-08-27T13:06:09.578Z,43.10
2017-08-27T13:08:38.961Z,42.20
2017-08-27T13:11:08.364Z,42.80
2017-08-27T13:13:37.753Z,42.30
2017-08-27T13:16:07.156Z,44.60
2017-08-27T13:18:36.536Z,47.70
2017-08-27T13:21:05.952Z,51.10
2017-08-27T13:23:35.344Z,50.60
2017-08-27T13:26:04.771Z,48.60
2017-08-27T13:28:34.187Z,45.30
2017-08-27T13:31:03.386Z,43.60
2017-08-27T13:33:32.807Z,43.00
2017-08-27T13:36:02.187Z,42.60
2017-08-27T13:38:31.597Z,41.40
2017-08-27T13:41:01.002Z,41.00
2017-08-27T13:43:30.402Z,44.40
2017-08-27T13:45:59.794Z,44.20
2017-08-27T13:48:29.218Z,45.80
2017-08-27T13:50:58.596Z,46.20
2017-08-27T13:53:27.995Z,44.50
2017-08-27T13:55:57.399Z,45.20
2017-08-27T13:58:26.795Z,45.10
2017-08-27T14:00:56.193Z,43.90
2017-08-27T14:03:25.608Z,40.80
2017-08-27T14:05:55.013Z,40.60
2017-08-27T14:08:24.417Z,39.10
2017-08-27T14:10:53.814Z,39.40
2017-08-27T14:13:23.227Z,42.10
2017-08-27T14:15:52.606Z,43.00
2017-08-27T14:18:22.005Z,42.70
2017-08-27T14:20:51.397Z,39.80
2017-08-27T14:23:20.676Z,40.70
2017-08-27T14:25:49.922Z,40.30
2017-08-27T14:28:19.332Z,39.70
2017-08-27T14:30:48.715Z,38.40
2017-08-27T14:33:18.135Z,38.10
2017-08-27T14:35:47.527Z,39.30
2017-08-27T14:38:16.949Z,39.20
2017-08-27T14:40:46.336Z,40.80
2017-08-27T14:43:15.737Z,41.40
2017-08-27T14:45:45.130Z,40.20
2017-08-27T14:48:14.544Z,39.60
2017-08-27T14:50:43.926Z,40.70
2017-08-27T14:53:13.309Z,40.20
2017-08-27T14:55:42.711Z,42.30
2017-08-27T14:58:12.884Z,43.80
2017-08-27T15:00:42.283Z,43.70
2017-08-27T15:03:11.664Z,43.70
2017-08-27T15:05:41.083Z,44.50
2017-08-27T15:08:10.519Z,45.00
2017-08-27T15:10:39.919Z,45.50
2017-08-27T15:13:09.317Z,46.00
2017-08-27T15:15:38.732Z,47.20
2017-08-27T15:18:08.112Z,47.50
2017-08-27T15:20:37.543Z,47.70
2017-08-27T15:23:06.758Z,48.30
2017-08-27T15:25:36.199Z,49.00
2017-08-27T15:28:05.596Z,49.70
2017-08-27T15:30:35.016Z,49.70
2017-08-27T15:33:04.237Z,49.60
2017-08-27T15:35:33.882Z,48.80
2017-08-27T15:38:03.256Z,48.70
2017-08-27T15:40:32.666Z,48.70
2017-08-27T15:43:02.050Z,48.40
2017-08-27T15:45:31.474Z,48.60
2017-08-27T15:48:00.954Z,48.60
2017-08-27T15:50:30.489Z,49.00
2017-08-27T15:52:59.893Z,49.90
2017-08-27T15:55:29.072Z,50.30
2017-08-27T15:57:58.156Z,51.30
2017-08-27T16:00:27.355Z,52.30
2017-08-27T16:02:56.753Z,52.00
2017-08-27T16:05:26.142Z,51.70
2017-08-27T16:07:55.548Z,51.50
2017-08-27T16:10:24.747Z,51.70
2017-08-27T16:12:54.145Z,52.50
2017-08-27T16:15:23.355Z,52.30
2017-08-27T16:17:52.753Z,52.40
2017-08-27T16:20:22.163Z,52.80
2017-08-27T16:22:51.383Z,52.70
2017-08-27T16:25:20.594Z,53.10
2017-08-27T16:27:49.825Z,53.50
2017-08-27T16:30:19.033Z,53.70
2017-08-27T16:32:48.245Z,54.00
2017-08-27T16:35:17.554Z,54.30
2017-08-27T16:37:46.786Z,54.20
2017-08-27T16:40:16.772Z,54.70
2017-08-27T16:42:45.998Z,54.70
2017-08-27T16:45:15.218Z,55.00
2017-08-27T16:47:44.396Z,55.20
2017-08-27T16:50:13.291Z,55.50
2017-08-27T16:52:42.505Z,55.80
2017-08-27T16:55:11.906Z,56.50
2017-08-27T16:57:41.288Z,56.10
2017-08-27T17:00:10.693Z,56.60
2017-08-27T17:02:40.069Z,57.30
2017-08-27T17:05:09.503Z,57.40
2017-08-27T17:07:38.368Z,57.50
2017-08-27T17:10:07.581Z,58.00
2017-08-27T17:12:36.801Z,58.00
2017-08-27T17:15:06.025Z,57.80
2017-08-27T17:17:35.590Z,58.50
2017-08-27T17:20:04.808Z,58.50
2017-08-27T17:22:34.022Z,60.00
2017-08-27T17:25:03.255Z,59.00
2017-08-27T17:27:32.449Z,59.40
2017-08-27T17:30:01.679Z,59.10
2017-08-27T17:32:30.871Z,59.40
2017-08-27T17:35:00.098Z,59.50
2017-08-27T17:37:29.299Z,59.50
2017-08-27T17:39:58.547Z,59.60
2017-08-27T17:42:27.797Z,59.70
2017-08-27T17:44:57.020Z,60.10
2017-08-27T17:47:26.225Z,60.60
2017-08-27T17:49:55.450Z,59.80
2017-08-27T17:52:24.691Z,60.00
2017-08-27T17:54:53.940Z,60.70
2017-08-27T17:57:23.417Z,60.30
2017-08-27T17:59:52.642Z,60.70
2017-08-27T18:02:21.902Z,61.00
2017-08-27T18:04:51.101Z,61.20
2017-08-27T18:07:20.523Z,61.70
2017-08-27T18:09:49.726Z,61.80
2017-08-27T18:12:18.950Z,63.80
2017-08-27T18:14:48.175Z,64.20
2017-08-27T18:17:17.415Z,62.90
2017-08-27T18:19:46.801Z,64.80
2017-08-27T18:22:16.201Z,64.70
2017-08-27T18:24:45.481Z,64.80
2017-08-27T18:27:14.886Z,64.20
2017-08-27T18:29:44.287Z,66.60
2017-08-27T18:32:13.513Z,66.20
2017-08-27T18:34:42.731Z,65.30
2017-08-27T18:37:12.280Z,65.10
2017-08-27T18:39:41.703Z,65.00
2017-08-27T18:42:11.864Z,66.40
2017-08-27T18:44:41.238Z,65.70
2017-08-27T18:47:10.644Z,66.60
2017-08-27T18:49:40.025Z,66.20
2017-08-27T18:52:09.435Z,66.70
2017-08-27T18:54:38.822Z,67.00
2017-08-27T18:57:08.053Z,67.40
2017-08-27T18:59:37.492Z,67.70
2017-08-27T19:02:06.903Z,68.30
2017-08-27T19:04:35.961Z,69.70
2017-08-27T19:07:05.364Z,69.30
2017-08-27T19:09:34.737Z,68.50
2017-08-27T19:12:04.233Z,68.00
2017-08-27T19:14:33.607Z,68.60
2017-08-27T19:17:02.859Z,68.40
2017-08-27T19:19:32.055Z,67.60
2017-08-27T19:22:01.496Z,66.50
2017-08-27T19:24:30.878Z,65.90
2017-08-27T19:27:00.270Z,66.60
2017-08-27T19:29:29.668Z,65.70
2017-08-27T19:31:59.062Z,65.90
2017-08-27T19:34:28.481Z,65.90
2017-08-27T19:36:57.865Z,66.10
2017-08-27T19:39:27.269Z,66.90
2017-08-27T19:41:56.687Z,67.20
2017-08-27T19:44:26.094Z,68.00
2017-08-27T19:46:55.477Z,67.90
2017-08-27T19:49:24.880Z,68.50
2017-08-27T19:51:54.285Z,69.10
2017-08-27T19:54:23.684Z,69.50
2017-08-27T19:56:53.084Z,70.30
2017-08-27T19:59:22.477Z,70.70
2017-08-27T20:01:51.860Z,71.60
2017-08-27T20:04:21.336Z,72.70
2017-08-27T20:06:50.731Z,71.80
2017-08-27T20:09:20.151Z,72.30
2017-08-27T20:11:49.527Z,72.20
2017-08-27T20:14:18.938Z,72.20
2017-08-27T20:16:48.437Z,73.20
2017-08-27T20:19:17.838Z,74.30
2017-08-27T20:21:47.235Z,74.00
2017-08-27T20:24:16.686Z,74.60
2017-08-27T20:26:46.091Z,74.60
2017-08-27T20:29:15.554Z,74.90
2017-08-27T20:31:44.932Z,75.60
2017-08-27T20:34:14.349Z,76.60
2017-08-27T20:36:43.794Z,78.00
2017-08-27T20:39:13.213Z,77.90
2017-08-27T20:41:42.596Z,79.00
2017-08-27T20:44:12.009Z,80.20
2017-08-27T20:46:41.412Z,79.80
2017-08-27T20:49:10.822Z,80.40
2017-08-27T20:51:40.215Z,81.20
2017-08-27T20:54:09.614Z,81.50
2017-08-27T20:56:39.024Z,82.00
2017-08-27T20:59:08.431Z,83.10
2017-08-27T21:01:37.839Z,83.10
2017-08-27T21:04:07.233Z,82.20
2017-08-27T21:06:36.641Z,83.50
2017-08-27T21:09:05.354Z,83.50
2017-08-27T21:11:34.769Z,85.40
2017-08-27T21:14:04.188Z,84.60
2017-08-27T21:16:32.898Z,84.80
2017-08-27T21:19:02.303Z,84.30
2017-08-27T21:21:31.736Z,84.80
2017-08-27T21:24:01.139Z,86.00
2017-08-27T21:26:30.533Z,88.10
2017-08-27T21:28:59.929Z,87.90
2017-08-27T21:31:29.363Z,88.40
2017-08-27T21:33:58.793Z,87.80
2017-08-27T21:36:28.201Z,89.30
2017-08-27T21:38:57.588Z,88.80
2017-08-27T21:41:27.018Z,89.20
2017-08-27T21:43:56.422Z,88.30
2017-08-27T21:46:25.812Z,88.10
2017-08-27T21:48:55.230Z,88.40
2017-08-27T21:51:24.661Z,90.10
2017-08-27T21:53:54.062Z,90.30
2017-08-27T21:56:23.261Z,90.10
2017-08-27T21:58:52.648Z,90.00
2017-08-27T22:01:22.074Z,89.30
2017-08-27T22:03:51.471Z,89.10
2017-08-27T22:06:20.898Z,89.10
2017-08-27T22:08:50.284Z,89.50
2017-08-27T22:11:19.680Z,90.50
2017-08-27T22:13:49.094Z,90.70
2017-08-27T22:16:18.482Z,88.70
2017-08-27T22:18:47.887Z,89.30
2017-08-27T22:21:17.279Z,89.20
2017-08-27T22:23:46.692Z,88.30
2017-08-27T22:26:16.104Z,89.90
2017-08-27T22:28:45.521Z,89.50
2017-08-27T22:31:14.913Z,89.10
2017-08-27T22:33:44.331Z,89.70
2017-08-27T22:36:13.732Z,90.10
2017-08-27T22:38:43.118Z,90.60
2017-08-27T22:41:12.351Z,90.70
2017-08-27T22:43:42.025Z,90.90
2017-08-27T22:46:11.447Z,91.70
2017-08-27T22:48:40.658Z,92.00
2017-08-27T22:51:09.844Z,92.10
2017-08-27T22:53:39.067Z,92.60
2017-08-27T22:56:08.281Z,92.50
2017-08-27T22:58:38.266Z,93.10
2017-08-27T23:01:07.484Z,93.10
2017-08-27T23:03:36.893Z,93.60
2017-08-27T23:06:06.275Z,93.70
2017-08-27T23:08:35.668Z,93.80
2017-08-27T23:11:05.067Z,94.10
2017-08-27T23:13:34.470Z,94.40
2017-08-27T23:16:03.853Z,94.70
2017-08-27T23:18:33.262Z,95.10
2017-08-27T23:21:02.663Z,95.50
2017-08-27T23:23:32.064Z,95.70
2017-08-27T23:26:01.068Z,96.20
2017-08-27T23:28:30.325Z,97.00
2017-08-27T23:30:59.715Z,96.80
2017-08-27T23:33:28.909Z,96.60
2017-08-27T23:35:58.329Z,97.10
2017-08-27T23:38:27.731Z,97.00
2017-08-27T23:40:57.143Z,97.80
2017-08-27T23:43:26.536Z,97.90
2017-08-27T23:45:55.957Z,97.70
2017-08-27T23:48:25.354Z,98.10
2017-08-27T23:50:54.768Z,97.60
2017-08-27T23:53:24.145Z,97.70
2017-08-27T23:55:53.580Z,98.00
2017-08-27T23:58:22.982Z,98.30
